createdAt,value
2023-10-21T00:02:19.402Z,18.18
2023-10-21T00:04:47.394Z,18.20
2023-10-21T00:07:15.444Z,18.18
2023-10-21T00:09:43.446Z,18.19
2023-10-21T00:12:13.379Z,18.08
2023-10-21T00:14:45.108Z,18.12
2023-10-21T00:17:13.114Z,18.10
2023-10-21T00:19:41.088Z,18.15
2023-10-21T00:22:09.085Z,18.14
2023-10-21T00:24:37.065Z,18.26
2023-10-21T00:27:05.090Z,17.82
2023-10-21T00:29:33.115Z,18.15
2023-10-21T00:32:02.905Z,18.28
2023-10-21T00:34:30.882Z,18.20
2023-10-21T00:36:58.885Z,18.23
2023-10-21T00:39:26.869Z,18.34
2023-10-21T00:41:54.856Z,18.34
2023-10-21T00:44:22.833Z,18.17
2023-10-21T00:46:50.826Z,18.33
2023-10-21T00:49:20.237Z,18.37
2023-10-21T00:51:49.824Z,18.46
2023-10-21T00:54:18.892Z,18.48
2023-10-21T00:56:46.954Z,18.53
2023-10-21T00:59:15.967Z,18.45
2023-10-21T01:01:45.200Z,18.46
2023-10-21T01:04:14.819Z,18.56
2023-10-21T01:06:45.222Z,18.56
2023-10-21T01:09:15.536Z,18.54
2023-10-21T01:11:43.715Z,18.53
2023-10-21T01:14:11.907Z,18.48
2023-10-21T01:16:39.935Z,18.37
2023-10-21T01:19:08.287Z,18.37
2023-10-21T01:21:36.427Z,18.46
2023-10-21T01:24:06.472Z,18.43
2023-10-21T01:26:35.051Z,18.44
2023-10-21T01:29:03.029Z,18.48
2023-10-21T01:31:33.883Z,18.35
2023-10-21T01:34:02.075Z,18.29
2023-10-21T01:36:30.136Z,18.31
2023-10-21T01:38:58.179Z,18.25
2023-10-21T01:41:27.570Z,18.21
2023-10-21T01:43:55.508Z,18.14
2023-10-21T01:46:23.478Z,18.19
2023-10-21T01:48:51.993Z,18.08
2023-10-21T01:51:20.278Z,18.05
2023-10-21T01:53:48.305Z,18.17
2023-10-21T01:56:16.314Z,18.22
2023-10-21T01:58:45.718Z,18.33
2023-10-21T02:01:13.716Z,18.34
2023-10-21T02:03:43.075Z,18.08
2023-10-21T02:06:11.336Z,18.15
2023-10-21T02:08:39.408Z,18.16
2023-10-21T02:11:07.767Z,18.07
2023-10-21T02:13:35.732Z,17.89
2023-10-21T02:16:11.215Z,17.78
2023-10-21T02:18:39.330Z,17.71
2023-10-21T02:21:07.926Z,17.58
2023-10-21T02:23:36.193Z,17.50
2023-10-21T02:26:05.703Z,17.47
2023-10-21T02:28:33.650Z,17.41
2023-10-21T02:31:05.580Z,17.40
2023-10-21T02:33:33.709Z,17.21
2023-10-21T02:36:01.743Z,17.38
2023-10-21T02:38:30.379Z,17.36
2023-10-21T02:40:58.507Z,17.44
2023-10-21T02:43:26.460Z,17.42
2023-10-21T02:45:54.432Z,17.39
2023-10-21T02:48:23.925Z,17.44
2023-10-21T02:50:51.949Z,17.42
2023-10-21T02:53:19.961Z,17.45
2023-10-21T02:55:47.913Z,17.50
2023-10-21T02:58:15.886Z,17.50
2023-10-21T03:00:43.896Z,17.47
2023-10-21T03:03:11.972Z,17.52
2023-10-21T03:05:43.819Z,17.60
2023-10-21T03:08:11.865Z,17.80
2023-10-21T03:10:39.882Z,17.91
2023-10-21T03:13:07.847Z,17.82
2023-10-21T03:15:36.046Z,17.80
2023-10-21T03:18:04.345Z,17.90
2023-10-21T03:20:34.181Z,17.92
2023-10-21T03:23:04.680Z,17.72
2023-10-21T03:25:34.502Z,17.74
2023-10-21T03:28:02.937Z,17.84
2023-10-21T03:30:31.285Z,17.73
2023-10-21T03:32:59.378Z,17.72
2023-10-21T03:35:27.495Z,17.50
2023-10-21T03:37:55.463Z,17.52
2023-10-21T03:40:24.805Z,17.45
2023-10-21T03:42:52.878Z,17.26
2023-10-21T03:45:21.276Z,17.30
2023-10-21T03:47:49.947Z,17.22
2023-10-21T03:50:17.962Z,17.19
2023-10-21T03:52:45.964Z,17.06
2023-10-21T03:55:13.957Z,16.97
2023-10-21T03:57:43.331Z,16.85
2023-10-21T04:00:13.402Z,16.78
2023-10-21T04:02:41.534Z,16.66
2023-10-21T04:05:10.030Z,16.54
2023-10-21T04:07:38.066Z,16.63
2023-10-21T04:10:06.592Z,16.59
2023-10-21T04:12:34.564Z,16.57
2023-10-21T04:15:04.135Z,16.50
2023-10-21T04:17:32.208Z,16.45
2023-10-21T04:20:00.330Z,16.27
2023-10-21T04:22:28.456Z,16.30
2023-10-21T04:24:56.405Z,16.22
2023-10-21T04:27:24.479Z,16.21
2023-10-21T04:29:52.506Z,16.15
2023-10-21T04:32:21.872Z,16.06
2023-10-21T04:34:49.874Z,16.06
2023-10-21T04:37:17.898Z,16.02
2023-10-21T04:39:45.825Z,16.01
2023-10-21T04:42:14.512Z,15.92
2023-10-21T04:44:44.294Z,15.76
2023-10-21T04:47:12.503Z,15.76
2023-10-21T04:49:44.120Z,15.72
2023-10-21T04:52:13.165Z,15.76
2023-10-21T04:54:41.158Z,15.77
2023-10-21T04:57:09.252Z,15.81
2023-10-21T04:59:37.579Z,15.85
2023-10-21T05:02:05.717Z,15.85
2023-10-21T05:04:34.185Z,15.96
2023-10-21T05:07:04.716Z,15.83
2023-10-21T05:09:33.478Z,15.90
2023-10-21T05:12:02.249Z,15.85
2023-10-21T05:14:30.347Z,15.91
2023-10-21T05:16:58.389Z,15.98
2023-10-21T05:19:26.418Z,15.96
2023-10-21T05:21:54.411Z,16.03
2023-10-21T05:24:23.869Z,16.10
2023-10-21T05:26:53.173Z,16.13
2023-10-21T05:29:21.173Z,16.13
2023-10-21T05:31:50.546Z,16.36
2023-10-21T05:34:20.673Z,16.40
2023-10-21T05:36:48.824Z,16.52
2023-10-21T05:39:17.072Z,16.62
2023-10-21T05:41:46.446Z,16.66
2023-10-21T05:44:14.429Z,16.58
2023-10-21T05:46:42.483Z,16.61
2023-10-21T05:49:10.594Z,16.80
2023-10-21T05:51:38.562Z,16.98
2023-10-21T05:54:06.850Z,17.36
2023-10-21T05:56:34.957Z,17.70
2023-10-21T05:59:05.421Z,18.02
2023-10-21T06:01:33.547Z,18.32
2023-10-21T06:04:01.614Z,18.64
2023-10-21T06:06:29.754Z,18.90
2023-10-21T06:08:57.820Z,19.31
2023-10-21T06:11:25.862Z,19.74
2023-10-21T06:13:53.832Z,20.21
2023-10-21T06:16:23.346Z,20.51
2023-10-21T06:18:51.312Z,20.51
2023-10-21T06:21:19.698Z,20.43
2023-10-21T06:23:47.710Z,20.50
2023-10-21T06:26:16.080Z,20.61
2023-10-21T06:28:44.025Z,20.62
2023-10-21T06:31:12.342Z,20.57
2023-10-21T06:33:41.815Z,20.58
2023-10-21T06:36:10.219Z,20.66
2023-10-21T06:38:38.481Z,20.88
2023-10-21T06:41:14.249Z,20.85
2023-10-21T06:43:43.340Z,20.87
2023-10-21T06:46:11.771Z,21.01
2023-10-21T06:48:41.186Z,21.28
2023-10-21T06:51:09.268Z,21.35
2023-10-21T06:53:37.402Z,21.59
2023-10-21T06:56:12.024Z,21.78
2023-10-21T06:58:40.911Z,21.96
2023-10-21T07:01:09.084Z,22.15
2023-10-21T07:03:38.071Z,22.50
2023-10-21T07:06:07.809Z,22.91
2023-10-21T07:08:37.012Z,23.21
2023-10-21T07:11:05.287Z,23.61
2023-10-21T07:13:33.666Z,23.95
2023-10-21T07:16:07.853Z,24.07
2023-10-21T07:18:35.879Z,24.84
2023-10-21T07:21:03.926Z,25.06
2023-10-21T07:23:33.464Z,25.19
2023-10-21T07:26:01.484Z,25.63
2023-10-21T07:28:30.303Z,25.95
2023-10-21T07:30:58.513Z,26.14
2023-10-21T07:33:26.571Z,26.46
2023-10-21T07:35:54.919Z,26.75
2023-10-21T07:38:23.479Z,26.93
2023-10-21T07:40:52.839Z,27.15
2023-10-21T07:43:21.291Z,27.25
2023-10-21T07:45:49.991Z,27.47
2023-10-21T07:48:18.208Z,27.61
2023-10-21T07:50:46.297Z,27.77
2023-10-21T07:53:14.253Z,27.83
2023-10-21T07:55:42.245Z,28.12
2023-10-21T07:58:11.615Z,28.25
2023-10-21T08:00:41.119Z,28.42
2023-10-21T08:03:09.148Z,28.49
2023-10-21T08:05:38.483Z,28.63
2023-10-21T08:08:06.874Z,28.63
2023-10-21T08:10:35.176Z,28.74
2023-10-21T08:13:03.235Z,28.95
2023-10-21T08:15:32.940Z,29.18
2023-10-21T08:18:01.107Z,29.26
2023-10-21T08:20:29.139Z,29.45
2023-10-21T08:22:56.119Z,29.64
2023-10-21T08:25:24.153Z,29.84
2023-10-21T08:27:52.156Z,30.03
2023-10-21T08:30:21.496Z,30.10
2023-10-21T08:32:52.775Z,30.10
2023-10-21T08:35:20.924Z,30.25
2023-10-21T08:37:48.914Z,30.27
2023-10-21T08:40:17.691Z,30.35
2023-10-21T08:43:00.155Z,30.47
2023-10-21T08:45:32.000Z,30.53
2023-10-21T08:48:03.310Z,30.59
2023-10-21T08:50:36.927Z,30.50
2023-10-21T08:53:07.509Z,30.65
2023-10-21T08:55:37.848Z,30.70
2023-10-21T08:58:07.756Z,30.79
2023-10-21T09:00:36.082Z,30.61
2023-10-21T09:03:06.404Z,30.60
2023-10-21T09:05:35.848Z,30.77
2023-10-21T09:08:05.345Z,30.74
2023-10-21T09:10:36.357Z,30.73
2023-10-21T09:13:15.493Z,30.50
2023-10-21T09:15:46.155Z,30.26
2023-10-21T09:18:16.311Z,30.46
2023-10-21T09:20:50.363Z,30.49
2023-10-21T09:23:18.855Z,30.30
2023-10-21T09:25:50.925Z,30.50
2023-10-21T09:28:23.090Z,30.17
2023-10-21T09:30:59.160Z,30.29
2023-10-21T09:33:28.681Z,30.44
2023-10-21T09:36:19.005Z,30.55
2023-10-21T09:38:52.626Z,30.72
2023-10-21T09:41:22.340Z,30.69
2023-10-21T09:43:52.528Z,30.69
2023-10-21T09:46:26.601Z,30.89
2023-10-21T09:49:01.646Z,30.89
2023-10-21T09:51:35.431Z,30.55
2023-10-21T09:54:12.833Z,30.50
2023-10-21T09:56:42.504Z,30.40
2023-10-21T09:59:11.854Z,30.56
2023-10-21T10:01:41.218Z,30.63
2023-10-21T10:04:12.389Z,30.67
2023-10-21T10:06:43.853Z,30.86
2023-10-21T10:09:14.264Z,31.00
2023-10-21T10:11:43.509Z,30.81
2023-10-21T10:14:12.525Z,30.93
2023-10-21T10:16:46.126Z,31.26
2023-10-21T10:19:17.789Z,31.09
2023-10-21T10:21:53.179Z,31.35
2023-10-21T10:24:23.757Z,31.40
2023-10-21T10:26:54.622Z,31.53
2023-10-21T10:29:27.267Z,31.49
2023-10-21T10:32:17.922Z,31.55
2023-10-21T10:34:54.428Z,31.74
2023-10-21T10:37:36.454Z,31.72
2023-10-21T10:40:19.522Z,31.86
2023-10-21T10:42:47.488Z,31.82
2023-10-21T10:45:15.474Z,31.94
2023-10-21T10:47:44.641Z,31.91
2023-10-21T10:50:24.492Z,31.93
2023-10-21T10:52:52.448Z,31.66
2023-10-21T10:55:20.449Z,31.84
2023-10-21T10:57:49.226Z,31.70
2023-10-21T11:00:21.773Z,31.81
2023-10-21T11:02:50.695Z,31.74
2023-10-21T11:05:22.330Z,31.93
2023-10-21T11:07:51.705Z,32.00
2023-10-21T11:10:25.882Z,32.08
2023-10-21T11:12:54.308Z,32.00
2023-10-21T11:15:23.214Z,31.93
2023-10-21T11:17:52.776Z,32.11
2023-10-21T11:20:22.296Z,32.04
2023-10-21T11:22:50.247Z,31.95
2023-10-21T11:25:20.328Z,32.07
2023-10-21T11:27:49.429Z,31.97
2023-10-21T11:30:17.671Z,32.15
2023-10-21T11:32:47.082Z,32.15
2023-10-21T11:35:16.170Z,32.27
2023-10-21T11:37:45.713Z,32.14
2023-10-21T11:40:17.090Z,32.11
2023-10-21T11:42:59.784Z,31.96
2023-10-21T11:45:30.392Z,32.07
2023-10-21T11:47:58.671Z,31.72
2023-10-21T11:50:26.949Z,31.64
2023-10-21T11:52:56.288Z,31.79
2023-10-21T11:55:40.035Z,31.71
2023-10-21T11:58:25.549Z,31.61
2023-10-21T12:01:10.890Z,31.71
2023-10-21T12:04:07.898Z,31.71
2023-10-21T12:07:01.544Z,31.75
2023-10-21T12:09:56.776Z,31.69
2023-10-21T12:12:42.380Z,31.64
2023-10-21T12:15:36.628Z,31.40
2023-10-21T12:18:24.737Z,31.56
2023-10-21T12:21:06.735Z,31.42
2023-10-21T12:24:00.055Z,31.54
2023-10-21T12:26:53.197Z,31.38
2023-10-21T12:29:38.654Z,31.46
2023-10-21T12:32:23.746Z,31.37
2023-10-21T12:35:08.498Z,31.48
2023-10-21T12:38:14.376Z,31.42
2023-10-21T12:40:56.880Z,31.25
2023-10-21T12:43:26.050Z,31.25
2023-10-21T12:45:55.662Z,31.13
2023-10-21T12:48:23.897Z,31.26
2023-10-21T12:50:51.983Z,31.31
2023-10-21T12:53:20.312Z,31.13
2023-10-21T12:55:48.669Z,31.01
2023-10-21T12:58:16.663Z,31.01
2023-10-21T13:00:46.164Z,30.74
2023-10-21T13:03:14.817Z,30.60
2023-10-21T13:05:44.892Z,30.46
2023-10-21T13:08:13.097Z,30.40
2023-10-21T13:10:41.375Z,30.09
2023-10-21T13:13:10.335Z,30.34
2023-10-21T13:15:38.896Z,30.01
2023-10-21T13:18:08.865Z,30.09
2023-10-21T13:20:37.255Z,30.02
2023-10-21T13:23:05.717Z,29.70
2023-10-21T13:25:35.035Z,29.78
2023-10-21T13:28:06.623Z,29.66
2023-10-21T13:30:35.183Z,29.66
2023-10-21T13:33:05.339Z,29.66
2023-10-21T13:35:35.640Z,29.63
2023-10-21T13:38:03.991Z,29.60
2023-10-21T13:40:32.288Z,29.65
2023-10-21T13:43:00.417Z,29.57
2023-10-21T13:45:30.086Z,29.60
2023-10-21T13:48:00.389Z,29.27
2023-10-21T13:50:29.830Z,29.53
2023-10-21T13:53:05.943Z,29.27
2023-10-21T13:55:34.147Z,29.29
2023-10-21T13:58:02.131Z,29.29
2023-10-21T14:00:39.031Z,29.28
2023-10-21T14:03:11.598Z,29.34
2023-10-21T14:05:40.361Z,29.03
2023-10-21T14:08:12.372Z,28.99
2023-10-21T14:10:43.960Z,28.93
2023-10-21T14:13:16.803Z,28.84
2023-10-21T14:15:46.640Z,28.64
2023-10-21T14:18:14.787Z,28.77
2023-10-21T14:20:43.330Z,28.80
2023-10-21T14:23:16.128Z,28.77
2023-10-21T14:25:46.497Z,28.73
2023-10-21T14:28:15.688Z,28.64
2023-10-21T14:30:47.806Z,28.56
2023-10-21T14:33:18.219Z,28.32
2023-10-21T14:35:47.759Z,28.17
2023-10-21T14:38:18.307Z,28.17
2023-10-21T14:40:47.077Z,27.99
2023-10-21T14:43:16.293Z,27.97
2023-10-21T14:45:45.721Z,27.77
2023-10-21T14:48:14.582Z,27.63
2023-10-21T14:50:43.679Z,27.56
2023-10-21T14:53:12.362Z,27.40
2023-10-21T14:55:52.339Z,27.24
2023-10-21T14:58:23.975Z,27.21
2023-10-21T15:00:52.822Z,27.05
2023-10-21T15:03:22.260Z,26.95
2023-10-21T15:05:51.151Z,26.78
2023-10-21T15:08:23.774Z,26.66
2023-10-21T15:10:53.740Z,26.53
2023-10-21T15:13:24.314Z,26.44
2023-10-21T15:16:00.619Z,26.33
2023-10-21T15:18:28.908Z,26.16
2023-10-21T15:21:04.685Z,26.02
2023-10-21T15:23:35.396Z,25.87
2023-10-21T15:26:05.092Z,25.74
2023-10-21T15:28:34.243Z,25.65
2023-10-21T15:31:02.226Z,25.49
2023-10-21T15:33:30.226Z,25.37
2023-10-21T15:35:58.200Z,25.15
2023-10-21T15:38:26.156Z,24.94
2023-10-21T15:40:54.109Z,24.81
2023-10-21T15:43:23.524Z,24.77
2023-10-21T15:46:00.041Z,24.69
2023-10-21T15:48:28.174Z,24.58
2023-10-21T15:51:08.347Z,24.44
2023-10-21T15:53:36.347Z,24.29
2023-10-21T15:56:04.406Z,24.17
2023-10-21T15:58:33.773Z,24.14
2023-10-21T16:01:01.766Z,24.02
2023-10-21T16:03:29.959Z,23.96
2023-10-21T16:05:58.711Z,23.78
2023-10-21T16:08:26.725Z,23.68
2023-10-21T16:11:01.900Z,23.65
2023-10-21T16:13:29.893Z,23.58
2023-10-21T16:16:00.667Z,23.50
2023-10-21T16:18:28.973Z,23.45
2023-10-21T16:20:57.023Z,23.39
2023-10-21T16:23:24.998Z,23.29
2023-10-21T16:25:52.950Z,23.21
2023-10-21T16:28:20.949Z,23.15
2023-10-21T16:30:48.980Z,23.09
2023-10-21T16:33:18.472Z,22.96
2023-10-21T16:35:47.126Z,22.83
2023-10-21T16:38:15.933Z,22.67
2023-10-21T16:40:44.350Z,22.53
2023-10-21T16:43:12.660Z,22.60
2023-10-21T16:45:44.127Z,22.41
2023-10-21T16:48:12.293Z,22.52
2023-10-21T16:50:41.837Z,22.14
2023-10-21T16:53:10.657Z,21.77
2023-10-21T16:55:38.799Z,21.58
2023-10-21T16:58:06.764Z,21.75
2023-10-21T17:00:34.767Z,21.38
2023-10-21T17:03:05.631Z,21.36
2023-10-21T17:05:35.658Z,21.71
2023-10-21T17:08:06.072Z,21.75
2023-10-21T17:10:35.237Z,21.66
2023-10-21T17:13:03.253Z,21.59
2023-10-21T17:15:31.728Z,21.43
2023-10-21T17:17:59.986Z,21.56
2023-10-21T17:20:28.799Z,21.56
2023-10-21T17:22:57.297Z,21.53
2023-10-21T17:25:27.879Z,21.52
2023-10-21T17:27:55.911Z,21.38
2023-10-21T17:30:23.920Z,21.64
2023-10-21T17:32:52.526Z,21.49
2023-10-21T17:35:23.159Z,21.03
2023-10-21T17:37:52.260Z,20.72
2023-10-21T17:40:20.266Z,20.48
2023-10-21T17:42:49.704Z,20.38
2023-10-21T17:45:18.320Z,20.58
2023-10-21T17:47:46.335Z,20.16
2023-10-21T17:50:15.037Z,19.93
2023-10-21T17:52:43.058Z,19.88
2023-10-21T17:55:11.015Z,19.95
2023-10-21T17:57:41.009Z,19.91
2023-10-21T18:00:12.247Z,20.15
2023-10-21T18:02:40.464Z,20.24
2023-10-21T18:05:08.985Z,20.30
2023-10-21T18:07:36.922Z,20.21
2023-10-21T18:10:05.639Z,20.40
2023-10-21T18:12:33.794Z,20.48
2023-10-21T18:15:04.203Z,20.33
2023-10-21T18:17:35.239Z,20.48
2023-10-21T18:20:05.170Z,20.56
2023-10-21T18:22:33.476Z,20.64
2023-10-21T18:25:01.479Z,20.59
2023-10-21T18:27:30.701Z,20.49
2023-10-21T18:29:58.790Z,20.53
2023-10-21T18:32:26.759Z,20.35
2023-10-21T18:34:56.112Z,20.34
2023-10-21T18:37:24.048Z,20.14
2023-10-21T18:39:52.045Z,20.22
2023-10-21T18:42:19.997Z,20.18
2023-10-21T18:44:48.015Z,20.18
2023-10-21T18:47:16.016Z,20.15
2023-10-21T18:49:43.991Z,20.16
2023-10-21T18:52:17.428Z,20.21
2023-10-21T18:54:45.638Z,20.16
2023-10-21T18:57:13.719Z,20.15
2023-10-21T18:59:41.920Z,20.23
2023-10-21T19:02:15.978Z,20.10
2023-10-21T19:04:45.639Z,19.94
2023-10-21T19:07:16.089Z,20.13
2023-10-21T19:09:44.483Z,20.23
2023-10-21T19:12:12.546Z,20.31
2023-10-21T19:14:40.607Z,20.27
2023-10-21T19:17:08.618Z,20.34
2023-10-21T19:19:37.214Z,20.40
2023-10-21T19:22:05.524Z,20.41
2023-10-21T19:24:34.986Z,20.51
2023-10-21T19:27:02.994Z,20.53
2023-10-21T19:29:31.626Z,20.55
2023-10-21T19:31:59.781Z,20.48
2023-10-21T19:34:28.758Z,20.54
2023-10-21T19:36:57.173Z,20.46
2023-10-21T19:39:28.074Z,20.56
2023-10-21T19:41:57.637Z,20.60
2023-10-21T19:44:27.027Z,20.45
2023-10-21T19:46:56.207Z,20.19
2023-10-21T19:49:24.915Z,20.21
2023-10-21T19:51:53.072Z,20.17
2023-10-21T19:54:21.083Z,20.20
2023-10-21T19:56:49.080Z,20.33
2023-10-21T19:59:18.431Z,20.42
2023-10-21T20:01:46.468Z,20.37
2023-10-21T20:04:14.800Z,20.33
2023-10-21T20:06:42.885Z,20.13
2023-10-21T20:09:12.205Z,20.01
2023-10-21T20:11:40.374Z,20.06
2023-10-21T20:14:08.459Z,19.90
2023-10-21T20:16:37.811Z,20.10
2023-10-21T20:19:05.851Z,19.96
2023-10-21T20:21:37.027Z,19.83
2023-10-21T20:24:05.728Z,19.68
2023-10-21T20:26:33.860Z,19.63
2023-10-21T20:29:01.850Z,19.49
2023-10-21T20:31:32.796Z,19.45
2023-10-21T20:34:02.657Z,19.44
2023-10-21T20:36:30.841Z,19.49
2023-10-21T20:38:58.860Z,19.46
2023-10-21T20:41:26.824Z,19.39
2023-10-21T20:43:54.794Z,19.50
2023-10-21T20:46:22.922Z,19.45
2023-10-21T20:48:50.966Z,19.55
2023-10-21T20:51:20.429Z,19.60
2023-10-21T20:53:48.422Z,19.65
2023-10-21T20:56:22.169Z,19.66
2023-10-21T20:58:50.500Z,19.68
2023-10-21T21:03:49.745Z,19.57
2023-10-21T21:06:17.825Z,19.55
2023-10-21T21:08:47.183Z,19.55
2023-10-21T21:11:15.259Z,19.52
2023-10-21T21:13:43.666Z,19.48
2023-10-21T21:16:12.128Z,19.45
2023-10-21T21:18:41.328Z,19.59
2023-10-21T21:21:09.561Z,19.48
2023-10-21T21:23:37.504Z,19.43
2023-10-21T21:26:06.877Z,19.56
2023-10-21T21:28:34.940Z,19.50
2023-10-21T21:31:02.961Z,19.50
2023-10-21T21:33:31.121Z,19.44
2023-10-21T21:36:00.220Z,19.36
2023-10-21T21:38:28.703Z,19.35
2023-10-21T21:40:56.674Z,19.41
2023-10-21T21:43:27.950Z,19.38
2023-10-21T21:45:56.785Z,19.38
2023-10-21T21:48:24.936Z,19.46
2023-10-21T21:50:53.054Z,19.47
2023-10-21T21:53:21.005Z,19.57
2023-10-21T21:55:55.373Z,19.71
2023-10-21T21:58:23.420Z,19.77
2023-10-21T22:00:55.123Z,19.80
2023-10-21T22:03:23.615Z,19.68
2023-10-21T22:05:53.805Z,19.66
2023-10-21T22:08:22.225Z,19.62
2023-10-21T22:10:50.659Z,19.55
2023-10-21T22:13:19.221Z,19.48
2023-10-21T22:15:47.525Z,19.33
2023-10-21T22:18:16.990Z,19.31
2023-10-21T22:20:45.222Z,19.22
2023-10-21T22:23:13.298Z,19.00
2023-10-21T22:25:41.391Z,18.83
2023-10-21T22:28:13.093Z,18.64
2023-10-21T22:30:42.365Z,18.62
2023-10-21T22:33:10.483Z,18.59
2023-10-21T22:35:40.404Z,18.59
2023-10-21T22:38:09.070Z,18.63
2023-10-21T22:40:37.096Z,18.59
2023-10-21T22:43:05.084Z,18.60
2023-10-21T22:45:34.230Z,18.54
2023-10-21T22:48:03.147Z,18.63
2023-10-21T22:50:31.326Z,18.62
2023-10-21T22:53:01.367Z,18.68
2023-10-21T22:55:29.329Z,18.65
2023-10-21T22:57:57.727Z,18.67
2023-10-21T23:00:28.278Z,18.62
2023-10-21T23:02:59.935Z,18.67
2023-10-21T23:05:28.447Z,18.72
2023-10-21T23:07:58.847Z,18.71
2023-10-21T23:10:29.761Z,18.64
2023-10-21T23:12:57.942Z,18.84
2023-10-21T23:15:25.948Z,19.00
2023-10-21T23:17:54.488Z,18.94
2023-10-21T23:20:22.497Z,18.86
2023-10-21T23:22:50.493Z,18.87
2023-10-21T23:25:21.375Z,18.93
2023-10-21T23:27:54.005Z,18.95
2023-10-21T23:30:22.596Z,19.01
2023-10-21T23:32:51.595Z,19.10
2023-10-21T23:35:20.198Z,19.16
2023-10-21T23:37:48.833Z,19.19
2023-10-21T23:40:17.041Z,19.20
2023-10-21T23:42:47.448Z,19.28
2023-10-21T23:45:17.382Z,19.30
2023-10-21T23:47:45.658Z,19.31
2023-10-21T23:50:15.730Z,19.26
2023-10-21T23:52:44.237Z,19.29
2023-10-21T23:55:12.974Z,19.21
2023-10-21T23:57:42.186Z,19.26
